Time;durP1;ratioP1;P1;durP2;ratioP2;P2;SDS_P1;SDS_P2;PMS_P1;PMS_P2;Temp;Humidity;BMP_temperature;BMP_pressure;BME280_temperature;BME280_humidity;BME280_pressure;Samples;Min_cycle;Max_cycle;Signal;HPM_P1;HPM_P2
2022/01/10 00:00:50;;;;;;;;;;;1.00;99.90;;;;;;5032651;28;19921;-72
2022/01/10 00:03:23;;;;;;;;;;;1.00;99.90;;;;;;5049554;28;19921;-72
2022/01/10 00:05:55;;;;;;;;;;;1.00;99.90;;;;;;5020059;28;19925;-72
2022/01/10 00:08:23;;;;;;;;;;;1.00;99.90;;;;;;5036984;28;20035;-72
2022/01/10 00:10:55;;;;;;;;;;;1.00;99.90;;;;;;5036141;28;19927;-72
2022/01/10 00:13:27;;;;;;;;;;;1.00;99.90;;;;;;5053960;28;20031;-72
2022/01/10 00:15:53;;;;;;;;;;;1.00;99.90;;;;;;5054252;28;20323;-72
2022/01/10 00:18:20;;;;;;;;;;;0.90;99.90;;;;;;5036672;28;19920;-72
2022/01/10 00:20:52;;;;;;;;;;;0.90;99.90;;;;;;5020759;28;19921;-72
2022/01/10 00:23:23;;;;;;;;;;;0.90;99.90;;;;;;5020492;28;20011;-72
2022/01/10 00:25:50;;;;;;;;;;;0.90;99.90;;;;;;5054096;28;19920;-72
2022/01/10 00:28:21;;;;;;;;;;;0.90;99.90;;;;;;5036248;28;19963;-72
2022/01/10 00:30:54;;;;;;;;;;;0.90;99.90;;;;;;5037086;28;19932;-72
2022/01/10 00:33:20;;;;;;;;;;;0.80;99.90;;;;;;5035504;28;19963;-72
2022/01/10 00:35:47;;;;;;;;;;;0.80;99.90;;;;;;5036062;28;20012;-72
2022/01/10 00:38:19;;;;;;;;;;;0.80;99.90;;;;;;5020639;28;20020;-72
2022/01/10 00:40:48;;;;;;;;;;;0.70;99.90;;;;;;5036064;28;20019;-72
2022/01/10 00:43:30;;;;;;;;;;;0.70;99.90;;;;;;5036607;28;19924;-72
2022/01/10 00:45:59;;;;;;;;;;;0.60;99.90;;;;;;5036051;28;20308;-72
2022/01/10 00:48:30;;;;;;;;;;;0.60;99.90;;;;;;5053782;28;20021;-72
2022/01/10 00:50:57;;;;;;;;;;;0.60;99.90;;;;;;5035739;28;20011;-72
2022/01/10 00:53:29;;;;;;;;;;;0.60;99.90;;;;;;5035351;28;19920;-72
2022/01/10 00:56:01;;;;;;;;;;;0.60;99.90;;;;;;5020358;28;19936;-72
2022/01/10 00:58:32;;;;;;;;;;;0.60;99.90;;;;;;5019805;28;19927;-72
2022/01/10 01:01:04;;;;;;;;;;;0.60;99.90;;;;;;5036803;28;19921;-72
2022/01/10 01:03:37;;;;;;;;;;;0.60;99.90;;;;;;5035503;28;20367;-72
2022/01/10 01:06:10;;;;;;;;;;;0.60;99.90;;;;;;5053400;28;20003;-73
2022/01/10 01:08:43;;;;;;;;;;;0.60;99.90;;;;;;5036353;28;19931;-72
2022/01/10 01:14:49;;;;;;;;;;;0.60;99.90;;;;;;4971843;28;20318;-72
2022/01/10 01:20:20;;;;;;;;;;;0.60;99.90;;;;;;5053164;28;20009;-72
2022/01/10 01:25:37;;;;;;;;;;;0.60;99.90;;;;;;5035269;28;19921;-72
2022/01/10 01:28:09;;;;;;;;;;;0.60;99.90;;;;;;5035369;28;20015;-72
2022/01/10 01:30:36;;;;;;;;;;;0.60;99.90;;;;;;5035162;28;19921;-72
2022/01/10 01:33:07;;;;;;;;;;;0.60;99.90;;;;;;5034592;28;19921;-72
2022/01/10 01:35:39;;;;;;;;;;;0.60;99.90;;;;;;5035378;28;20624;-72
2022/01/10 01:38:11;;;;;;;;;;;0.60;99.90;;;;;;5035016;28;19925;-72
2022/01/10 01:40:54;;;;;;;;;;;0.60;99.90;;;;;;5035072;28;19921;-71
2022/01/10 01:43:26;;;;;;;;;;;0.70;99.90;;;;;;5034553;28;19921;-71
2022/01/10 01:45:57;;;;;;;;;;;0.60;99.90;;;;;;5034979;28;19925;-72
2022/01/10 01:48:29;;;;;;;;;;;0.70;99.90;;;;;;5051887;28;19920;-72
2022/01/10 01:50:56;;;;;;;;;;;0.70;99.90;;;;;;5034360;28;19921;-72
2022/01/10 01:53:27;;;;;;;;;;;0.70;99.90;;;;;;5030809;28;19921;-72
2022/01/10 01:56:05;;;;;;;;;;;0.60;99.90;;;;;;5032998;28;19920;-72
2022/01/10 01:58:33;;;;;;;;;;;0.60;99.90;;;;;;5014881;28;19967;-72
2022/01/10 02:01:05;;;;;;;;;;;0.60;99.90;;;;;;5031434;28;20384;-72
2022/01/10 02:03:38;;;;;;;;;;;0.60;99.90;;;;;;5030831;28;19936;-72
2022/01/10 02:06:06;;;;;;;;;;;0.60;99.90;;;;;;5041210;28;19935;-72
2022/01/10 02:08:39;;;;;;;;;;;0.60;99.90;;;;;;5034616;28;19927;-72
2022/01/10 02:11:11;;;;;;;;;;;0.60;99.90;;;;;;5018424;28;19971;-72
2022/01/10 02:13:44;;;;;;;;;;;0.60;99.90;;;;;;5018205;28;19920;-72
2022/01/10 02:16:38;;;;;;;;;;;0.60;99.90;;;;;;5020128;28;19932;-72
2022/01/10 02:19:06;;;;;;;;;;;0.60;99.90;;;;;;5034128;28;19920;-72
2022/01/10 02:21:38;;;;;;;;;;;0.60;99.90;;;;;;5033981;28;20011;-72
2022/01/10 02:24:05;;;;;;;;;;;0.60;99.90;;;;;;5033526;28;20305;-72
2022/01/10 02:26:32;;;;;;;;;;;0.50;99.90;;;;;;5033970;28;19967;-72
2022/01/10 02:28:58;;;;;;;;;;;0.50;99.90;;;;;;5033375;28;20008;-72
2022/01/10 02:31:25;;;;;;;;;;;0.60;99.90;;;;;;5034547;28;19921;-73
2022/01/10 02:33:58;;;;;;;;;;;0.60;99.90;;;;;;5034142;28;20027;-72
2022/01/10 02:36:26;;;;;;;;;;;0.60;99.90;;;;;;5034289;28;19967;-72
2022/01/10 02:38:57;;;;;;;;;;;0.60;99.90;;;;;;5034132;28;19978;-72
2022/01/10 02:41:33;;;;;;;;;;;0.60;99.90;;;;;;5034466;28;19968;-72
2022/01/10 02:44:04;;;;;;;;;;;0.60;99.90;;;;;;5033800;28;19921;-72
2022/01/10 02:46:37;;;;;;;;;;;0.60;99.90;;;;;;5034377;28;20014;-72
2022/01/10 02:49:23;;;;;;;;;;;0.60;99.90;;;;;;5034238;28;20425;-72
2022/01/10 02:51:56;;;;;;;;;;;0.60;99.90;;;;;;5052283;28;19921;-73
2022/01/10 02:54:30;;;;;;;;;;;0.60;99.90;;;;;;5033662;28;20463;-72
2022/01/10 02:56:58;;;;;;;;;;;0.60;99.90;;;;;;5034006;28;19924;-72
2022/01/10 02:59:27;;;;;;;;;;;0.60;99.90;;;;;;5033819;28;20019;-72
2022/01/10 03:01:54;;;;;;;;;;;0.60;99.90;;;;;;5034265;28;19927;-73
2022/01/10 03:04:23;;;;;;;;;;;0.60;99.90;;;;;;5033417;28;19920;-72
2022/01/10 03:06:54;;;;;;;;;;;0.60;99.90;;;;;;5018241;28;19963;-72
2022/01/10 03:09:21;;;;;;;;;;;0.60;99.90;;;;;;5034107;28;20015;-72
2022/01/10 03:11:48;;;;;;;;;;;0.60;99.90;;;;;;5033760;28;20012;-73
2022/01/10 03:14:19;;;;;;;;;;;0.60;99.90;;;;;;5033247;28;20370;-72
2022/01/10 03:16:46;;;;;;;;;;;0.60;99.90;;;;;;5033829;28;19921;-72
2022/01/10 03:19:13;;;;;;;;;;;0.60;99.90;;;;;;5033800;28;19927;-72
2022/01/10 03:21:39;;;;;;;;;;;0.60;99.90;;;;;;5033947;28;19956;-72
2022/01/10 03:24:06;;;;;;;;;;;0.60;99.90;;;;;;5016840;28;19956;-72
2022/01/10 03:26:33;;;;;;;;;;;0.60;99.90;;;;;;5017391;28;19925;-72
2022/01/10 03:29:02;;;;;;;;;;;0.60;99.90;;;;;;5033616;28;19920;-72
2022/01/10 03:31:34;;;;;;;;;;;0.60;99.90;;;;;;5033738;28;19943;-73
2022/01/10 03:34:10;;;;;;;;;;;0.60;99.90;;;;;;5032996;28;19921;-72
2022/01/10 03:36:43;;;;;;;;;;;0.60;99.90;;;;;;5051511;28;20015;-73
2022/01/10 03:39:15;;;;;;;;;;;0.60;99.90;;;;;;5033489;28;19921;-72
2022/01/10 03:41:47;;;;;;;;;;;0.70;99.90;;;;;;5033509;28;20351;-72
2022/01/10 03:44:18;;;;;;;;;;;0.60;99.90;;;;;;5033197;28;20446;-72
2022/01/10 03:46:50;;;;;;;;;;;0.70;99.90;;;;;;5017830;28;19924;-72
2022/01/10 03:49:17;;;;;;;;;;;0.60;99.90;;;;;;5029733;28;20301;-72
2022/01/10 03:51:49;;;;;;;;;;;0.60;99.90;;;;;;5033921;28;19920;-72
2022/01/10 03:54:21;;;;;;;;;;;0.60;99.90;;;;;;5032953;28;19928;-72
2022/01/10 03:56:55;;;;;;;;;;;0.60;99.90;;;;;;5018002;28;19921;-72
2022/01/10 03:59:26;;;;;;;;;;;0.60;99.90;;;;;;5033397;28;19921;-72
2022/01/10 04:01:54;;;;;;;;;;;0.60;99.90;;;;;;5033113;28;20351;-72
2022/01/10 04:04:20;;;;;;;;;;;0.60;99.90;;;;;;5032952;28;20297;-72
2022/01/10 04:06:47;;;;;;;;;;;0.60;99.90;;;;;;5033301;28;19924;-72
2022/01/10 04:09:21;;;;;;;;;;;0.60;99.90;;;;;;5051168;28;20655;-71
2022/01/10 04:11:52;;;;;;;;;;;0.60;99.90;;;;;;5033385;28;20392;-72
2022/01/10 04:14:20;;;;;;;;;;;0.60;99.90;;;;;;5032580;28;19921;-72
2022/01/10 04:16:53;;;;;;;;;;;0.50;99.90;;;;;;5031277;28;19932;-72
2022/01/10 04:19:25;;;;;;;;;;;0.60;99.90;;;;;;5040267;28;19921;-72
2022/01/10 04:21:52;;;;;;;;;;;0.60;99.90;;;;;;5030018;28;19960;-72
2022/01/10 04:24:18;;;;;;;;;;;0.60;99.90;;;;;;5043752;28;19966;-72
2022/01/10 04:26:50;;;;;;;;;;;0.60;99.90;;;;;;5022633;28;19927;-72
2022/01/10 04:29:22;;;;;;;;;;;0.60;99.90;;;;;;5031783;28;19972;-72
2022/01/10 04:31:48;;;;;;;;;;;0.60;99.90;;;;;;5049279;28;19924;-72
2022/01/10 04:34:20;;;;;;;;;;;0.60;99.90;;;;;;5031539;28;19936;-72
2022/01/10 04:36:52;;;;;;;;;;;0.60;99.90;;;;;;5028824;28;19966;-78
2022/01/10 04:39:24;;;;;;;;;;;0.60;99.90;;;;;;5032533;28;19927;-72
2022/01/10 04:41:56;;;;;;;;;;;0.60;99.90;;;;;;5026310;28;19925;-72
2022/01/10 04:44:27;;;;;;;;;;;0.80;99.90;;;;;;5033141;28;20324;-72
2022/01/10 04:47:00;;;;;;;;;;;0.90;99.90;;;;;;5032823;28;19920;-72
2022/01/10 04:49:46;;;;;;;;;;;1.00;99.90;;;;;;5032568;28;20006;-72
2022/01/10 04:52:13;;;;;;;;;;;0.90;99.90;;;;;;5035738;28;19931;-72
2022/01/10 04:54:44;;;;;;;;;;;0.90;99.90;;;;;;5049896;28;20387;-72
2022/01/10 04:57:11;;;;;;;;;;;0.90;99.90;;;;;;5035758;28;19920;-72
2022/01/10 04:59:38;;;;;;;;;;;0.80;99.90;;;;;;5035799;28;19920;-72
2022/01/10 05:02:10;;;;;;;;;;;0.70;99.90;;;;;;5020074;28;19920;-73
2022/01/10 05:04:37;;;;;;;;;;;0.70;99.90;;;;;;5035192;28;19920;-72
2022/01/10 05:07:09;;;;;;;;;;;0.70;99.90;;;;;;5053719;28;20019;-72
2022/01/10 05:09:43;;;;;;;;;;;0.70;99.90;;;;;;5030589;28;19924;-73
2022/01/10 05:12:12;;;;;;;;;;;0.70;99.90;;;;;;5035003;28;19921;-72
2022/01/10 05:14:44;;;;;;;;;;;0.60;99.90;;;;;;5035769;28;19921;-73
2022/01/10 05:17:18;;;;;;;;;;;0.60;99.90;;;;;;5019529;28;19928;-72
2022/01/10 05:19:45;;;;;;;;;;;0.60;99.90;;;;;;5052539;28;19951;-73
2022/01/10 05:22:17;;;;;;;;;;;0.60;99.90;;;;;;5035138;28;20015;-72
2022/01/10 05:24:49;;;;;;;;;;;0.60;99.90;;;;;;5034361;28;19930;-72
2022/01/10 05:27:21;;;;;;;;;;;0.60;99.90;;;;;;5051419;28;19920;-72
2022/01/10 05:29:55;;;;;;;;;;;0.60;99.90;;;;;;5034530;28;19921;-72
2022/01/10 05:32:27;;;;;;;;;;;0.60;99.90;;;;;;5034402;28;19928;-72
2022/01/10 05:35:25;;;;;;;;;;;0.70;99.90;;;;;;5015084;28;20393;-72
2022/01/10 05:37:52;;;;;;;;;;;0.60;99.90;;;;;;5015762;28;19925;-72
2022/01/10 05:40:19;;;;;;;;;;;0.60;99.90;;;;;;5034979;28;19920;-72
2022/01/10 05:42:51;;;;;;;;;;;0.60;99.90;;;;;;5034781;28;20381;-72
2022/01/10 05:45:25;;;;;;;;;;;0.60;99.90;;;;;;5035464;28;19921;-72
2022/01/10 05:47:52;;;;;;;;;;;0.60;99.90;;;;;;5033097;28;19921;-73
2022/01/10 05:50:31;;;;;;;;;;;0.70;99.90;;;;;;5028409;28;19925;-72
2022/01/10 05:53:07;;;;;;;;;;;0.70;99.90;;;;;;5027856;28;19967;-73
2022/01/10 05:55:39;;;;;;;;;;;0.70;99.90;;;;;;5005303;28;20296;-72
2022/01/10 05:58:08;;;;;;;;;;;0.70;99.90;;;;;;5032918;28;19956;-72
2022/01/10 06:00:40;;;;;;;;;;;0.70;99.90;;;;;;5051819;28;19920;-73
2022/01/10 06:03:12;;;;;;;;;;;0.70;99.90;;;;;;5034594;28;19927;-73
2022/01/10 06:05:43;;;;;;;;;;;0.60;99.90;;;;;;5051392;28;19920;-73
2022/01/10 06:08:16;;;;;;;;;;;0.60;99.90;;;;;;5019256;28;19921;-73
2022/01/10 06:10:43;;;;;;;;;;;0.70;99.90;;;;;;5018745;28;19921;-73
2022/01/10 06:13:23;;;;;;;;;;;0.70;99.90;;;;;;5036257;28;19974;-73
2022/01/10 06:15:51;;;;;;;;;;;0.60;99.90;;;;;;5018737;28;19921;-74
2022/01/10 06:18:23;;;;;;;;;;;0.60;99.90;;;;;;5031196;28;19931;-73
2022/01/10 06:20:50;;;;;;;;;;;0.60;99.90;;;;;;5015263;28;20015;-72
2022/01/10 06:23:22;;;;;;;;;;;0.60;99.90;;;;;;5014746;28;19921;-71
2022/01/10 06:25:49;;;;;;;;;;;0.60;99.90;;;;;;5031755;28;19935;-73
2022/01/10 06:28:21;;;;;;;;;;;0.60;99.90;;;;;;5024609;28;20405;-73
2022/01/10 06:30:51;;;;;;;;;;;0.60;99.90;;;;;;5025444;28;19920;-74
2022/01/10 06:33:17;;;;;;;;;;;0.60;99.90;;;;;;5044880;28;19952;-73
2022/01/10 06:35:44;;;;;;;;;;;0.60;99.90;;;;;;5034486;28;19998;-73
2022/01/10 06:38:11;;;;;;;;;;;0.60;99.90;;;;;;5016124;28;19921;-73
2022/01/10 06:40:40;;;;;;;;;;;0.60;99.90;;;;;;5018130;28;19928;-73
2022/01/10 06:43:12;;;;;;;;;;;0.60;99.90;;;;;;5034269;28;19920;-73
2022/01/10 06:45:44;;;;;;;;;;;0.60;99.90;;;;;;5018665;28;19920;-74
2022/01/10 06:48:12;;;;;;;;;;;0.60;99.90;;;;;;5034082;28;20266;-73
2022/01/10 06:50:38;;;;;;;;;;;0.60;99.90;;;;;;5047382;28;19986;-72
2022/01/10 06:53:10;;;;;;;;;;;0.60;99.90;;;;;;5033526;28;19920;-73
2022/01/10 06:55:43;;;;;;;;;;;0.60;99.90;;;;;;5018393;28;19928;-73
2022/01/10 06:58:14;;;;;;;;;;;0.60;99.90;;;;;;5052040;28;20315;-73
2022/01/10 07:00:42;;;;;;;;;;;0.60;99.90;;;;;;5032642;28;19921;-73
2022/01/10 07:03:14;;;;;;;;;;;0.60;99.90;;;;;;5033790;28;19974;-73
2022/01/10 07:05:58;;;;;;;;;;;0.60;99.90;;;;;;5034484;28;19974;-74
2022/01/10 07:08:25;;;;;;;;;;;0.60;99.90;;;;;;5034603;28;19974;-72
2022/01/10 07:10:59;;;;;;;;;;;0.60;99.90;;;;;;5019219;28;19920;-73
2022/01/10 07:13:30;;;;;;;;;;;0.60;99.90;;;;;;5033822;28;20368;-74
2022/01/10 07:16:05;;;;;;;;;;;0.60;99.90;;;;;;5051140;28;19927;-73
2022/01/10 07:18:32;;;;;;;;;;;0.60;99.90;;;;;;5034817;28;19921;-73
2022/01/10 07:21:13;;;;;;;;;;;0.60;99.90;;;;;;5028404;28;19921;-73
2022/01/10 07:23:44;;;;;;;;;;;0.60;99.90;;;;;;5021442;28;19960;-73
2022/01/10 07:26:11;;;;;;;;;;;0.60;99.90;;;;;;5042610;28;20562;-73
2022/01/10 07:28:38;;;;;;;;;;;0.60;99.90;;;;;;5050123;28;20401;-73
2022/01/10 07:31:09;;;;;;;;;;;0.60;99.90;;;;;;5043120;28;19920;-73
2022/01/10 07:33:41;;;;;;;;;;;0.60;99.90;;;;;;5034456;28;20019;-72
2022/01/10 07:36:13;;;;;;;;;;;0.60;99.90;;;;;;5018176;28;19921;-73
2022/01/10 07:38:44;;;;;;;;;;;0.60;99.90;;;;;;5032330;28;20585;-73
2022/01/10 07:41:11;;;;;;;;;;;0.70;99.90;;;;;;5034139;28;19921;-73
2022/01/10 07:43:43;;;;;;;;;;;0.70;99.90;;;;;;5058478;28;19927;-73
2022/01/10 07:46:14;;;;;;;;;;;0.70;99.90;;;;;;5034894;28;19927;-73
2022/01/10 07:48:48;;;;;;;;;;;0.70;99.90;;;;;;5031105;28;20110;-72
2022/01/10 07:51:24;;;;;;;;;;;0.70;99.90;;;;;;5032792;28;19971;-73
2022/01/10 07:53:51;;;;;;;;;;;0.70;99.90;;;;;;5043030;28;19927;-73
2022/01/10 07:56:22;;;;;;;;;;;0.70;99.90;;;;;;5017781;28;19921;-72
2022/01/10 07:58:54;;;;;;;;;;;0.80;99.90;;;;;;5034247;28;19935;-72
2022/01/10 08:01:21;;;;;;;;;;;0.80;99.90;;;;;;5033805;28;19955;-72
2022/01/10 08:03:52;;;;;;;;;;;0.80;99.90;;;;;;5050758;28;19999;-72
2022/01/10 08:06:24;;;;;;;;;;;0.80;99.90;;;;;;5049633;28;20313;-73
2022/01/10 08:08:51;;;;;;;;;;;0.80;99.90;;;;;;5021697;28;20003;-73
2022/01/10 08:11:18;;;;;;;;;;;0.80;99.90;;;;;;5016528;28;20395;-72
2022/01/10 08:13:49;;;;;;;;;;;0.80;99.90;;;;;;5045870;28;20004;-72
2022/01/10 08:16:16;;;;;;;;;;;0.80;99.90;;;;;;5050816;28;20363;-73
2022/01/10 08:18:48;;;;;;;;;;;0.80;99.90;;;;;;5038177;28;19925;-72
2022/01/10 08:21:19;;;;;;;;;;;0.80;99.90;;;;;;5032920;28;19927;-73
2022/01/10 08:23:46;;;;;;;;;;;0.90;99.90;;;;;;5032895;28;19924;-72
2022/01/10 08:26:18;;;;;;;;;;;0.90;99.90;;;;;;5036143;28;19931;-72
2022/01/10 08:28:49;;;;;;;;;;;0.90;99.90;;;;;;5037783;28;19928;-72
2022/01/10 08:31:16;;;;;;;;;;;0.90;99.90;;;;;;5053519;28;19922;-72
2022/01/10 08:33:48;;;;;;;;;;;0.90;99.90;;;;;;5053024;28;20313;-72
2022/01/10 08:36:20;;;;;;;;;;;0.90;99.90;;;;;;5037382;28;19935;-72
2022/01/10 08:38:52;;;;;;;;;;;0.90;99.90;;;;;;5037339;28;19928;-72
2022/01/10 08:41:23;;;;;;;;;;;0.90;99.90;;;;;;5037281;28;19928;-73
2022/01/10 08:43:50;;;;;;;;;;;0.90;99.90;;;;;;5053752;28;19927;-72
2022/01/10 08:46:17;;;;;;;;;;;0.90;99.90;;;;;;5036472;28;20033;-72
2022/01/10 08:48:44;;;;;;;;;;;1.00;99.90;;;;;;5051090;28;19920;-72
2022/01/10 08:51:10;;;;;;;;;;;1.00;99.90;;;;;;5045811;28;19942;-72
2022/01/10 08:53:42;;;;;;;;;;;1.10;99.90;;;;;;5035762;28;19944;-72
2022/01/10 08:56:09;;;;;;;;;;;1.10;99.90;;;;;;5052795;28;20404;-72
2022/01/10 08:58:40;;;;;;;;;;;1.20;99.90;;;;;;5053445;28;19921;-72
2022/01/10 09:01:07;;;;;;;;;;;1.20;99.90;;;;;;5036340;28;19921;-72
2022/01/10 09:03:39;;;;;;;;;;;1.20;99.90;;;;;;5035505;28;19951;-72
2022/01/10 09:06:11;;;;;;;;;;;1.20;99.90;;;;;;5035696;28;19960;-73
2022/01/10 09:08:43;;;;;;;;;;;1.30;99.90;;;;;;5050190;28;19970;-72
2022/01/10 09:11:10;;;;;;;;;;;1.30;99.90;;;;;;5036546;28;20407;-72
2022/01/10 09:13:42;;;;;;;;;;;1.30;99.90;;;;;;5019811;28;19921;-73
2022/01/10 09:16:09;;;;;;;;;;;1.40;99.90;;;;;;5035789;28;20321;-73
2022/01/10 09:18:41;;;;;;;;;;;1.40;99.90;;;;;;5020734;28;19921;-73
2022/01/10 09:21:13;;;;;;;;;;;1.40;99.90;;;;;;5036398;28;19943;-73
2022/01/10 09:23:44;;;;;;;;;;;1.50;99.90;;;;;;5052941;28;19926;-73
2022/01/10 09:26:16;;;;;;;;;;;1.50;99.90;;;;;;5036231;28;19921;-73
2022/01/10 09:28:43;;;;;;;;;;;1.50;99.90;;;;;;5036362;28;19921;-72
2022/01/10 09:31:15;;;;;;;;;;;1.50;99.90;;;;;;5053215;28;19920;-72
2022/01/10 09:33:52;;;;;;;;;;;1.50;99.90;;;;;;5035861;28;19920;-73
2022/01/10 09:36:19;;;;;;;;;;;1.40;99.90;;;;;;5035619;28;20407;-72
2022/01/10 09:38:51;;;;;;;;;;;1.50;99.90;;;;;;5054004;28;19921;-72
2022/01/10 09:41:18;;;;;;;;;;;1.50;99.90;;;;;;5035861;28;19943;-72
2022/01/10 09:43:51;;;;;;;;;;;1.50;99.90;;;;;;5053583;28;19921;-72
2022/01/10 09:46:24;;;;;;;;;;;1.50;99.90;;;;;;5035877;28;19921;-72
2022/01/10 09:48:57;;;;;;;;;;;1.50;99.90;;;;;;5053632;28;19921;-72
2022/01/10 09:51:30;;;;;;;;;;;1.50;99.90;;;;;;5035967;28;20207;-72
2022/01/10 09:54:02;;;;;;;;;;;1.50;99.90;;;;;;5035296;28;20003;-72
2022/01/10 09:56:34;;;;;;;;;;;1.60;99.90;;;;;;5053564;28;19928;-72
2022/01/10 09:59:00;;;;;;;;;;;1.50;99.90;;;;;;5053496;28;20007;-73
2022/01/10 10:01:32;;;;;;;;;;;1.60;99.90;;;;;;5053710;28;19920;-73
2022/01/10 10:04:04;;;;;;;;;;;1.60;99.90;;;;;;5035482;28;19963;-72
2022/01/10 10:06:32;;;;;;;;;;;1.60;99.90;;;;;;5052524;28;19920;-73
2022/01/10 10:09:08;;;;;;;;;;;1.60;99.90;;;;;;5035556;28;19920;-73
2022/01/10 10:11:45;;;;;;;;;;;1.70;99.90;;;;;;5053330;28;20452;-72
2022/01/10 10:14:18;;;;;;;;;;;1.60;99.90;;;;;;5035104;28;19927;-73
2022/01/10 10:16:52;;;;;;;;;;;1.60;99.90;;;;;;5035469;28;20019;-73
2022/01/10 10:19:27;;;;;;;;;;;1.60;99.90;;;;;;5034727;28;19924;-72
2022/01/10 10:21:59;;;;;;;;;;;1.90;99.90;;;;;;5046846;28;20452;-73
2022/01/10 10:24:31;;;;;;;;;;;2.00;99.90;;;;;;5051931;28;19927;-72
2022/01/10 10:27:04;;;;;;;;;;;2.00;99.90;;;;;;5051469;28;20293;-73
2022/01/10 10:29:39;;;;;;;;;;;1.90;99.90;;;;;;5018340;28;20300;-73
2022/01/10 10:32:12;;;;;;;;;;;2.00;99.90;;;;;;5034334;28;19920;-73
2022/01/10 10:34:43;;;;;;;;;;;1.90;99.90;;;;;;5037553;28;20475;-73
2022/01/10 10:37:11;;;;;;;;;;;1.90;99.90;;;;;;5050625;28;19921;-72
2022/01/10 10:39:40;;;;;;;;;;;1.90;99.90;;;;;;5034577;28;20359;-73
2022/01/10 10:42:12;;;;;;;;;;;1.90;99.90;;;;;;5030160;28;19921;-72
2022/01/10 10:44:44;;;;;;;;;;;2.00;99.90;;;;;;5050359;28;19927;-73
2022/01/10 10:47:17;;;;;;;;;;;2.00;99.90;;;;;;5018370;28;19924;-73
2022/01/10 10:49:51;;;;;;;;;;;2.00;99.90;;;;;;5050977;28;20019;-73
2022/01/10 10:52:29;;;;;;;;;;;2.00;99.90;;;;;;5024442;28;19924;-73
2022/01/10 10:55:12;;;;;;;;;;;2.00;99.90;;;;;;5034681;28;19920;-73
2022/01/10 10:57:39;;;;;;;;;;;2.10;99.90;;;;;;5033805;28;20019;-73
2022/01/10 11:00:12;;;;;;;;;;;2.10;99.90;;;;;;5034846;28;20297;-72
2022/01/10 11:02:39;;;;;;;;;;;2.10;99.90;;;;;;5033528;28;20384;-73
2022/01/10 11:05:07;;;;;;;;;;;2.10;99.90;;;;;;5051301;28;19927;-73
2022/01/10 11:07:35;;;;;;;;;;;2.10;99.90;;;;;;5033691;28;19927;-73
2022/01/10 11:10:07;;;;;;;;;;;2.10;99.90;;;;;;5033508;28;20385;-73
2022/01/10 11:12:36;;;;;;;;;;;2.10;99.90;;;;;;5033555;28;19928;-73
2022/01/10 11:15:08;;;;;;;;;;;2.10;99.90;;;;;;5032609;28;19927;-73
2022/01/10 11:17:39;;;;;;;;;;;2.20;99.90;;;;;;5033397;28;19921;-72
2022/01/10 11:20:12;;;;;;;;;;;2.20;99.90;;;;;;5018018;28;19921;-74
2022/01/10 11:22:40;;;;;;;;;;;2.30;99.90;;;;;;5037734;28;19932;-72
2022/01/10 11:25:22;;;;;;;;;;;2.30;99.90;;;;;;5033493;28;19921;-73
2022/01/10 11:27:50;;;;;;;;;;;2.30;99.90;;;;;;5030252;28;20381;-73
2022/01/10 11:30:24;;;;;;;;;;;2.30;99.90;;;;;;5033457;28;20381;-72
2022/01/10 11:32:57;;;;;;;;;;;2.30;99.90;;;;;;5018748;28;20399;-73
2022/01/10 11:35:31;;;;;;;;;;;2.30;99.90;;;;;;5033454;28;19933;-73
2022/01/10 11:38:16;;;;;;;;;;;2.30;99.90;;;;;;5051151;28;20299;-73
2022/01/10 11:40:50;;;;;;;;;;;2.30;99.90;;;;;;5034800;28;19920;-71
2022/01/10 11:43:36;;;;;;;;;;;2.30;99.90;;;;;;5050930;28;19921;-73
2022/01/10 11:46:07;;;;;;;;;;;2.30;99.90;;;;;;5034235;28;19927;-73
2022/01/10 11:48:51;;;;;;;;;;;2.30;99.90;;;;;;5049097;28;19927;-73
2022/01/10 11:51:34;;;;;;;;;;;2.30;99.90;;;;;;5014529;28;19921;-71
2022/01/10 11:54:06;;;;;;;;;;;2.30;99.90;;;;;;5025353;28;19920;-73
2022/01/10 11:56:34;;;;;;;;;;;2.30;99.90;;;;;;5034225;28;20011;-73
2022/01/10 11:59:06;;;;;;;;;;;2.30;99.90;;;;;;5051646;28;19921;-73
2022/01/10 12:01:39;;;;;;;;;;;2.20;99.90;;;;;;5037898;28;19927;-72
2022/01/10 12:04:11;;;;;;;;;;;2.20;99.90;;;;;;5037045;28;19921;-73
2022/01/10 12:06:43;;;;;;;;;;;2.20;99.90;;;;;;5055017;28;19943;-73
2022/01/10 12:09:14;;;;;;;;;;;2.30;99.90;;;;;;5021393;28;19920;-73
2022/01/10 12:11:41;;;;;;;;;;;2.30;99.90;;;;;;5019165;28;19921;-73
2022/01/10 12:14:08;;;;;;;;;;;2.30;99.90;;;;;;5016985;28;19921;-73
2022/01/10 12:16:35;;;;;;;;;;;2.40;99.90;;;;;;5017265;28;19921;-73
2022/01/10 12:19:03;;;;;;;;;;;2.50;99.90;;;;;;5034903;28;19928;-73
2022/01/10 12:21:35;;;;;;;;;;;2.50;99.90;;;;;;5034913;28;20285;-72
2022/01/10 12:24:02;;;;;;;;;;;2.50;99.90;;;;;;5016892;28;19921;-73
2022/01/10 12:26:29;;;;;;;;;;;2.40;99.90;;;;;;5035031;28;19940;-71
2022/01/10 12:28:57;;;;;;;;;;;2.40;99.90;;;;;;5038841;28;19931;-73
2022/01/10 12:31:25;;;;;;;;;;;2.40;99.90;;;;;;5054573;28;19931;-72
2022/01/10 12:33:57;;;;;;;;;;;2.40;99.90;;;;;;5036294;28;19925;-72
2022/01/10 12:36:25;;;;;;;;;;;2.40;99.90;;;;;;5020370;28;19931;-72
2022/01/10 12:38:59;;;;;;;;;;;2.40;99.90;;;;;;5036919;28;19932;-73
2022/01/10 12:41:26;;;;;;;;;;;2.50;99.90;;;;;;5020233;28;20304;-73
2022/01/10 12:43:58;;;;;;;;;;;2.50;99.90;;;;;;5051218;28;20381;-73
2022/01/10 12:46:27;;;;;;;;;;;2.50;99.90;;;;;;5036393;28;20304;-73
2022/01/10 12:49:03;;;;;;;;;;;2.50;99.90;;;;;;5020851;28;19920;-73
2022/01/10 12:51:36;;;;;;;;;;;2.50;99.90;;;;;;5037126;28;20305;-72
2022/01/10 12:54:05;;;;;;;;;;;2.50;99.90;;;;;;5036135;28;20311;-73
2022/01/10 12:56:32;;;;;;;;;;;2.40;99.90;;;;;;5053034;28;19921;-72
2022/01/10 12:59:04;;;;;;;;;;;2.50;99.90;;;;;;5052965;28;20396;-73
2022/01/10 13:01:35;;;;;;;;;;;2.50;99.90;;;;;;5036368;28;20312;-71
2022/01/10 13:04:07;;;;;;;;;;;2.40;99.90;;;;;;5035810;28;19927;-73
2022/01/10 13:06:42;;;;;;;;;;;2.50;99.90;;;;;;5036352;28;19921;-73
2022/01/10 13:09:09;;;;;;;;;;;2.50;99.90;;;;;;5035989;28;19927;-73
2022/01/10 13:11:44;;;;;;;;;;;2.60;99.90;;;;;;5035460;28;19988;-72
2022/01/10 13:14:12;;;;;;;;;;;2.60;99.90;;;;;;5048339;28;19927;-73
2022/01/10 13:16:39;;;;;;;;;;;2.60;99.90;;;;;;5036001;28;19927;-73
2022/01/10 13:19:12;;;;;;;;;;;2.60;99.90;;;;;;5015534;28;20385;-72
2022/01/10 13:21:42;;;;;;;;;;;2.70;99.90;;;;;;5026691;28;19927;-72
2022/01/10 13:24:14;;;;;;;;;;;2.70;99.90;;;;;;5034975;28;19960;-73
2022/01/10 13:26:52;;;;;;;;;;;2.80;99.90;;;;;;5053066;28;19920;-72
2022/01/10 13:29:38;;;;;;;;;;;2.80;99.90;;;;;;5015427;28;19944;-72
2022/01/10 13:32:17;;;;;;;;;;;2.90;99.90;;;;;;5036169;28;20411;-72
2022/01/10 13:34:44;;;;;;;;;;;2.80;99.90;;;;;;5017725;28;19927;-72
2022/01/10 13:37:12;;;;;;;;;;;2.80;99.90;;;;;;5022068;28;20430;-73
2022/01/10 13:39:43;;;;;;;;;;;2.90;99.90;;;;;;5034127;28;19927;-73
2022/01/10 13:42:10;;;;;;;;;;;2.90;99.90;;;;;;5034165;28;19994;-72
2022/01/10 13:44:50;;;;;;;;;;;3.00;99.90;;;;;;5031066;28;20396;-73
2022/01/10 13:47:22;;;;;;;;;;;3.00;99.90;;;;;;5030214;28;20008;-73
2022/01/10 13:50:13;;;;;;;;;;;3.00;99.90;;;;;;5015991;28;19964;-73
2022/01/10 13:53:03;;;;;;;;;;;3.00;99.90;;;;;;5015663;28;19925;-72
2022/01/10 13:55:36;;;;;;;;;;;3.00;99.90;;;;;;5035122;28;20015;-72
2022/01/10 13:58:04;;;;;;;;;;;3.10;99.90;;;;;;5034901;28;19921;-73
2022/01/10 14:00:31;;;;;;;;;;;3.00;99.90;;;;;;5033597;28;20408;-73
2022/01/10 14:03:03;;;;;;;;;;;3.00;99.90;;;;;;5042912;28;19931;-72
2022/01/10 14:05:36;;;;;;;;;;;3.00;99.90;;;;;;5017561;28;19936;-73
2022/01/10 14:08:03;;;;;;;;;;;3.00;99.90;;;;;;5032994;28;19955;-73
2022/01/10 14:10:30;;;;;;;;;;;3.00;99.90;;;;;;5050935;28;19929;-72
2022/01/10 14:12:57;;;;;;;;;;;2.90;99.90;;;;;;5016879;28;19979;-72
2022/01/10 14:15:29;;;;;;;;;;;2.90;99.90;;;;;;5034756;28;20356;-73
2022/01/10 14:18:01;;;;;;;;;;;2.80;99.90;;;;;;5028065;28;19921;-73
2022/01/10 14:20:33;;;;;;;;;;;2.90;99.90;;;;;;5038932;28;20381;-72
2022/01/10 14:23:00;;;;;;;;;;;2.90;99.90;;;;;;5031938;28;19925;-73
2022/01/10 14:25:27;;;;;;;;;;;2.90;99.90;;;;;;5025832;28;19928;-72
2022/01/10 14:27:54;;;;;;;;;;;2.80;99.90;;;;;;5050913;28;20448;-73
2022/01/10 14:30:21;;;;;;;;;;;2.80;99.90;;;;;;5033870;28;19920;-72
2022/01/10 14:32:49;;;;;;;;;;;2.80;99.90;;;;;;5033451;28;19947;-72
2022/01/10 14:35:20;;;;;;;;;;;2.80;99.90;;;;;;5035182;28;19931;-73
2022/01/10 14:37:52;;;;;;;;;;;2.80;99.90;;;;;;5052501;28;20100;-73
2022/01/10 14:40:24;;;;;;;;;;;2.70;99.90;;;;;;5051856;28;19931;-72
2022/01/10 14:42:50;;;;;;;;;;;2.70;99.90;;;;;;5017000;28;19967;-72
2022/01/10 14:45:18;;;;;;;;;;;2.80;99.90;;;;;;5051671;28;19948;-73
2022/01/10 14:47:45;;;;;;;;;;;2.80;99.90;;;;;;5033379;28;19948;-73
2022/01/10 14:50:20;;;;;;;;;;;2.80;99.90;;;;;;5033781;28;19927;-73
2022/01/10 14:52:47;;;;;;;;;;;2.70;99.90;;;;;;5032848;28;19920;-73
2022/01/10 14:55:28;;;;;;;;;;;2.80;99.90;;;;;;5087457;27;19915;-73
2022/01/10 14:58:00;;;;;;;;;;;2.70;99.90;;;;;;5042953;28;19926;-73
2022/01/10 15:00:33;;;;;;;;;;;2.70;99.90;;;;;;5005137;28;20108;-74
2022/01/10 15:03:04;;;;;;;;;;;2.70;99.90;;;;;;4972023;28;19926;-73